GOOYGVSV

Guest
Details From GOOY - Dakar Leopold Sedar Senghor Intl
To GVSV - Sao Pedro
Flight Number -
Tags generated
Created
Modified
Stats Distance 503 nm / 932 km
Max Altitude 34,000 ft / 10,363 m
Waypoints 7
Social Downloads 3
Likes 0
Share VATSIM

Download

Looking for another format? Having issues loading an existing format? Contact us
Advertisement - Login to hide

Notes

Basic altitude profile: - Ascent Rate: 2500ft/min - Ascent Speed: 250kts - Cruise Altitude: 35000ft - Cruise Speed: 420kts - Descent Rate: 1500ft/min - Descent Speed: 250kts

Route

GOOY NARAT UR976 IREDO GVSV

ID Type Via Altitude Latitude Longitude Leg Dist Tot Dist Heading (true) Name
O GOOY APT - 0 ft / 0 m 14.73971˚ -17.49023˚ - 0 nm - Dakar Leopold Sedar Senghor Intl
NARAT FIX - 10,400 ft / 3,170 m 14.94333˚ -18.00000˚ 32 nm 32 nm 293° / 292° -
LUMPO FIX UR976 (AWY-HI) 34,000 ft / 10,363 m 15.68000˚ -20.00139˚ 124 nm 156 nm 291° / 291° -
UGAMA FIX UR976 (AWY-HI) 34,000 ft / 10,363 m 16.28667˚ -21.67000˚ 102 nm 259 nm 291° / 290° -
CVS VOR UR976 (AWY-HI) 34,000 ft / 10,363 m 16.73677˚ -22.95105˚ 78 nm 337 nm 290° / 290° SAL VOR-DME
IREDO FIX UR976 (AWY-HI) 24,500 ft / 7,468 m 17.71833˚ -24.30333˚ 97 nm 435 nm 307° / 307° -
O GVSV APT - 0 ft / 0 m 16.83370˚ -25.05466˚ 68 nm 503 nm 219° / 219° Sao Pedro

Altitude Profile

Advertisement - Login to hide

Weather


0- 5 10 15 20 25 30 35+ Temperature / ° C

Clouds and Precipitation
Forecast for 2017-12-14 06:00 UTC. Updated 2 hours ago

Ground ~20,000 ft ~40,000 ft Winds

GOOY

Details ICAO GOOY (DKR)
Name Dakar Leopold Sedar Senghor Intl
Region Senegal
Timezone Africa/Dakar (UTC+0.0)
Stats Elevation 85 ft / 26 m (AMSL)
Location 14.739711° -17.490226°
Runways 2
Magnetic Variation 7.347° W

METAR

GOOY 140600Z 02014KT 8000 NSC 21/14 Q1015

Decode

TAF

TAF GOOY 140530Z 1406/1512 03016KT 8000 NSC= TAF GBYD 140530Z 1406/1512 04012KT 8000 NSC

Decode

Departure Runways

ID Width Length Bearing (true) Bearing (mag) Surface Threshold Offset Overrun Length
03 98 ft / 30 m 4,921 ft / 1,500 m 22.31° 29.66° Asphalt 0 ft / 0 m 98 ft / 30 m
18 148 ft / 45 m 11,511 ft / 3,509 m 172.57° 179.92° Asphalt 525 ft / 160 m 197 ft / 60 m
21 98 ft / 30 m 4,921 ft / 1,500 m 202.31° 209.66° Asphalt 0 ft / 0 m 1,590 ft / 485 m
36 148 ft / 45 m 11,511 ft / 3,509 m 352.57° 359.92° Asphalt 0 ft / 0 m 197 ft / 60 m

GVSV

Details ICAO GVSV (VXE)
Name Sao Pedro
Region Cape Verde
Timezone Atlantic/Cape_Verde (UTC-1.0)
Stats Elevation 66 ft / 20 m (AMSL)
Location 16.833703° -25.054661°
Runways 1
Magnetic Variation 10.110° W

METAR

GVSV 140600Z /////KT 9999 FEW018 BKN022 XX/XX Q//// NOSIG

Decode

TAF

TAF GVSV 132300Z 1400/1506 08020KT 9999 SCT018 TEMPO 1400/1404 SCT015 BKN020 TEMPO 1411/1421 08020G30KT BECMG 1423/1501 5000 HZ

Decode

Destination Runways

ID Width Length Bearing (true) Bearing (mag) Surface Threshold Offset Overrun Length
07 148 ft / 45 m 6,493 ft / 1,979 m 53.56° 63.67° Asphalt 1,066 ft / 325 m 0 ft / 0 m
25 148 ft / 45 m 6,493 ft / 1,979 m 233.57° 243.68° Asphalt 1,113 ft / 339 m 0 ft / 0 m

Popular Alternatives